sensor_id;sensor_type;location;lat;lon;timestamp;temperature;humidity
4054;DHT22;2042;47.956;9.222;2024-03-07T00:02:44;3.30;62.00
4054;DHT22;2042;47.956;9.222;2024-03-07T00:05:10;3.30;62.10
4054;DHT22;2042;47.956;9.222;2024-03-07T00:07:37;3.20;62.10
4054;DHT22;2042;47.956;9.222;2024-03-07T00:10:03;3.30;62.40
4054;DHT22;2042;47.956;9.222;2024-03-07T00:12:28;3.30;62.50
4054;DHT22;2042;47.956;9.222;2024-03-07T00:14:55;3.30;62.50
4054;DHT22;2042;47.956;9.222;2024-03-07T00:17:21;3.30;62.70
4054;DHT22;2042;47.956;9.222;2024-03-07T00:19:48;3.30;62.90
4054;DHT22;2042;47.956;9.222;2024-03-07T00:22:14;3.30;63.10
4054;DHT22;2042;47.956;9.222;2024-03-07T00:24:41;3.30;63.20
4054;DHT22;2042;47.956;9.222;2024-03-07T00:27:08;3.20;63.40
4054;DHT22;2042;47.956;9.222;2024-03-07T00:29:34;3.30;63.70
4054;DHT22;2042;47.956;9.222;2024-03-07T00:32:03;3.30;63.90
4054;DHT22;2042;47.956;9.222;2024-03-07T00:34:29;3.20;63.90
4054;DHT22;2042;47.956;9.222;2024-03-07T00:36:54;3.20;64.00
4054;DHT22;2042;47.956;9.222;2024-03-07T00:39:21;3.30;64.10
4054;DHT22;2042;47.956;9.222;2024-03-07T00:41:47;3.20;64.00
4054;DHT22;2042;47.956;9.222;2024-03-07T00:44:13;3.30;64.10
4054;DHT22;2042;47.956;9.222;2024-03-07T00:46:38;3.30;64.30
4054;DHT22;2042;47.956;9.222;2024-03-07T00:49:05;3.30;64.90
4054;DHT22;2042;47.956;9.222;2024-03-07T00:51:31;3.30;64.30
4054;DHT22;2042;47.956;9.222;2024-03-07T00:53:56;3.30;64.00
4054;DHT22;2042;47.956;9.222;2024-03-07T00:56:23;3.20;63.80
4054;DHT22;2042;47.956;9.222;2024-03-07T00:58:49;3.30;63.90
4054;DHT22;2042;47.956;9.222;2024-03-07T01:01:15;3.20;63.80
4054;DHT22;2042;47.956;9.222;2024-03-07T01:03:45;3.20;63.90
4054;DHT22;2042;47.956;9.222;2024-03-07T01:06:11;3.20;64.60
4054;DHT22;2042;47.956;9.222;2024-03-07T01:08:37;3.10;63.90
4054;DHT22;2042;47.956;9.222;2024-03-07T01:11:04;3.20;64.10
4054;DHT22;2042;47.956;9.222;2024-03-07T01:13:38;3.20;64.30
4054;DHT22;2042;47.956;9.222;2024-03-07T01:16:04;3.30;64.70
4054;DHT22;2042;47.956;9.222;2024-03-07T01:18:30;3.30;64.80
4054;DHT22;2042;47.956;9.222;2024-03-07T01:21:02;3.30;65.00
4054;DHT22;2042;47.956;9.222;2024-03-07T01:23:28;3.30;65.10
4054;DHT22;2042;47.956;9.222;2024-03-07T01:25:56;3.30;65.10
4054;DHT22;2042;47.956;9.222;2024-03-07T01:28:25;3.30;65.10
4054;DHT22;2042;47.956;9.222;2024-03-07T01:30:51;3.30;65.10
4054;DHT22;2042;47.956;9.222;2024-03-07T01:33:21;3.30;65.10
4054;DHT22;2042;47.956;9.222;2024-03-07T01:35:47;3.30;65.20
4054;DHT22;2042;47.956;9.222;2024-03-07T01:38:13;3.30;65.20
4054;DHT22;2042;47.956;9.222;2024-03-07T01:40:42;3.40;65.20
4054;DHT22;2042;47.956;9.222;2024-03-07T01:43:09;3.30;65.10
4054;DHT22;2042;47.956;9.222;2024-03-07T01:45:38;3.30;65.10
4054;DHT22;2042;47.956;9.222;2024-03-07T01:48:09;3.30;65.10
4054;DHT22;2042;47.956;9.222;2024-03-07T01:50:38;3.30;65.20
4054;DHT22;2042;47.956;9.222;2024-03-07T01:53:05;3.30;65.30
4054;DHT22;2042;47.956;9.222;2024-03-07T01:55:32;3.30;65.40
4054;DHT22;2042;47.956;9.222;2024-03-07T01:57:59;3.40;65.50
4054;DHT22;2042;47.956;9.222;2024-03-07T02:00:26;3.40;65.40
4054;DHT22;2042;47.956;9.222;2024-03-07T02:02:53;3.40;65.40
4054;DHT22;2042;47.956;9.222;2024-03-07T02:05:22;3.40;65.40
4054;DHT22;2042;47.956;9.222;2024-03-07T02:07:48;3.30;65.30
4054;DHT22;2042;47.956;9.222;2024-03-07T02:10:15;3.40;65.30
4054;DHT22;2042;47.956;9.222;2024-03-07T02:12:42;3.40;65.30
4054;DHT22;2042;47.956;9.222;2024-03-07T02:15:08;3.30;65.10
4054;DHT22;2042;47.956;9.222;2024-03-07T02:17:35;3.40;65.10
4054;DHT22;2042;47.956;9.222;2024-03-07T02:20:01;3.30;65.00
4054;DHT22;2042;47.956;9.222;2024-03-07T02:22:29;3.30;64.90
4054;DHT22;2042;47.956;9.222;2024-03-07T02:24:55;3.30;64.90
4054;DHT22;2042;47.956;9.222;2024-03-07T02:27:20;3.20;64.80
4054;DHT22;2042;47.956;9.222;2024-03-07T02:29:46;3.30;64.80
4054;DHT22;2042;47.956;9.222;2024-03-07T02:32:12;3.20;64.50
4054;DHT22;2042;47.956;9.222;2024-03-07T02:34:38;3.20;64.40
4054;DHT22;2042;47.956;9.222;2024-03-07T02:37:04;3.20;64.30
4054;DHT22;2042;47.956;9.222;2024-03-07T02:39:30;3.10;64.10
4054;DHT22;2042;47.956;9.222;2024-03-07T02:41:55;3.00;64.00
4054;DHT22;2042;47.956;9.222;2024-03-07T02:44:22;3.10;64.60
4054;DHT22;2042;47.956;9.222;2024-03-07T02:46:47;3.00;63.90
4054;DHT22;2042;47.956;9.222;2024-03-07T02:49:14;3.00;64.00
4054;DHT22;2042;47.956;9.222;2024-03-07T02:51:43;3.00;64.10
4054;DHT22;2042;47.956;9.222;2024-03-07T02:54:08;3.00;64.20
4054;DHT22;2042;47.956;9.222;2024-03-07T02:56:34;3.00;64.30
4054;DHT22;2042;47.956;9.222;2024-03-07T02:59:00;3.00;64.30
4054;DHT22;2042;47.956;9.222;2024-03-07T03:01:26;3.00;64.30
4054;DHT22;2042;47.956;9.222;2024-03-07T03:03:52;3.00;64.20
4054;DHT22;2042;47.956;9.222;2024-03-07T03:06:18;3.10;64.40
4054;DHT22;2042;47.956;9.222;2024-03-07T03:08:46;3.00;64.30
4054;DHT22;2042;47.956;9.222;2024-03-07T03:11:12;3.10;64.30
4054;DHT22;2042;47.956;9.222;2024-03-07T03:13:42;3.00;64.30
4054;DHT22;2042;47.956;9.222;2024-03-07T03:16:08;3.00;64.40
4054;DHT22;2042;47.956;9.222;2024-03-07T03:18:35;3.00;64.30
4054;DHT22;2042;47.956;9.222;2024-03-07T03:21:01;3.10;64.60
4054;DHT22;2042;47.956;9.222;2024-03-07T03:23:28;3.10;64.80
4054;DHT22;2042;47.956;9.222;2024-03-07T03:25:54;3.10;64.70
4054;DHT22;2042;47.956;9.222;2024-03-07T03:28:20;3.10;64.60
4054;DHT22;2042;47.956;9.222;2024-03-07T03:30:47;3.10;64.70
4054;DHT22;2042;47.956;9.222;2024-03-07T03:33:12;3.10;64.70
4054;DHT22;2042;47.956;9.222;2024-03-07T03:35:38;3.10;64.70
4054;DHT22;2042;47.956;9.222;2024-03-07T03:38:05;3.10;64.50
4054;DHT22;2042;47.956;9.222;2024-03-07T03:40:30;3.10;64.50
4054;DHT22;2042;47.956;9.222;2024-03-07T03:42:57;3.10;64.50
4054;DHT22;2042;47.956;9.222;2024-03-07T03:45:23;3.10;64.50
4054;DHT22;2042;47.956;9.222;2024-03-07T03:47:51;3.10;64.40
4054;DHT22;2042;47.956;9.222;2024-03-07T03:50:17;3.00;64.20
4054;DHT22;2042;47.956;9.222;2024-03-07T03:52:43;3.00;63.90
4054;DHT22;2042;47.956;9.222;2024-03-07T03:55:10;3.00;63.60
4054;DHT22;2042;47.956;9.222;2024-03-07T03:57:38;2.90;63.10
4054;DHT22;2042;47.956;9.222;2024-03-07T04:00:08;2.80;62.40
4054;DHT22;2042;47.956;9.222;2024-03-07T04:02:46;2.70;61.40
4054;DHT22;2042;47.956;9.222;2024-03-07T04:05:13;2.60;60.80
4054;DHT22;2042;47.956;9.222;2024-03-07T04:07:41;2.50;60.50
4054;DHT22;2042;47.956;9.222;2024-03-07T04:10:10;2.40;60.40
4054;DHT22;2042;47.956;9.222;2024-03-07T04:12:38;2.40;60.80
4054;DHT22;2042;47.956;9.222;2024-03-07T04:15:08;2.40;61.10
4054;DHT22;2042;47.956;9.222;2024-03-07T04:17:35;2.30;61.50
4054;DHT22;2042;47.956;9.222;2024-03-07T04:20:01;2.40;61.80
4054;DHT22;2042;47.956;9.222;2024-03-07T04:22:28;2.40;62.10
4054;DHT22;2042;47.956;9.222;2024-03-07T04:24:54;2.40;62.60
4054;DHT22;2042;47.956;9.222;2024-03-07T04:27:20;2.50;63.30
4054;DHT22;2042;47.956;9.222;2024-03-07T04:29:47;2.50;63.70
4054;DHT22;2042;47.956;9.222;2024-03-07T04:32:16;2.50;63.80
4054;DHT22;2042;47.956;9.222;2024-03-07T04:34:46;2.60;64.10
4054;DHT22;2042;47.956;9.222;2024-03-07T04:37:12;2.60;64.40
4054;DHT22;2042;47.956;9.222;2024-03-07T04:39:39;2.70;64.50
4054;DHT22;2042;47.956;9.222;2024-03-07T04:42:05;2.70;64.60
4054;DHT22;2042;47.956;9.222;2024-03-07T04:44:35;2.70;64.60
4054;DHT22;2042;47.956;9.222;2024-03-07T04:47:03;2.80;64.80
4054;DHT22;2042;47.956;9.222;2024-03-07T04:49:30;2.70;64.80
4054;DHT22;2042;47.956;9.222;2024-03-07T04:51:58;2.80;64.90
4054;DHT22;2042;47.956;9.222;2024-03-07T04:54:25;2.80;64.90
4054;DHT22;2042;47.956;9.222;2024-03-07T04:56:52;2.80;64.90
4054;DHT22;2042;47.956;9.222;2024-03-07T04:59:19;2.80;64.70
4054;DHT22;2042;47.956;9.222;2024-03-07T05:01:46;2.70;64.30
4054;DHT22;2042;47.956;9.222;2024-03-07T05:04:13;2.70;64.30
4054;DHT22;2042;47.956;9.222;2024-03-07T05:06:39;2.70;64.40
4054;DHT22;2042;47.956;9.222;2024-03-07T05:09:07;2.60;64.40
4054;DHT22;2042;47.956;9.222;2024-03-07T05:11:34;2.70;64.60
4054;DHT22;2042;47.956;9.222;2024-03-07T05:14:01;2.60;64.50
4054;DHT22;2042;47.956;9.222;2024-03-07T05:16:27;2.70;64.70
4054;DHT22;2042;47.956;9.222;2024-03-07T05:18:53;2.70;64.80
4054;DHT22;2042;47.956;9.222;2024-03-07T05:21:19;2.70;65.00
4054;DHT22;2042;47.956;9.222;2024-03-07T05:24:05;2.70;65.00
4054;DHT22;2042;47.956;9.222;2024-03-07T05:26:31;2.70;64.70
4054;DHT22;2042;47.956;9.222;2024-03-07T05:29:06;2.70;64.70
4054;DHT22;2042;47.956;9.222;2024-03-07T05:31:39;2.70;64.80
4054;DHT22;2042;47.956;9.222;2024-03-07T05:34:12;2.70;64.80
4054;DHT22;2042;47.956;9.222;2024-03-07T05:36:38;2.70;64.80
4054;DHT22;2042;47.956;9.222;2024-03-07T05:39:12;2.60;64.50
4054;DHT22;2042;47.956;9.222;2024-03-07T05:41:39;2.60;64.40
4054;DHT22;2042;47.956;9.222;2024-03-07T05:44:06;2.60;64.20
4054;DHT22;2042;47.956;9.222;2024-03-07T05:46:38;2.50;64.00
4054;DHT22;2042;47.956;9.222;2024-03-07T05:49:11;2.50;64.10
4054;DHT22;2042;47.956;9.222;2024-03-07T05:51:37;2.60;64.20
4054;DHT22;2042;47.956;9.222;2024-03-07T05:54:03;2.60;64.30
4054;DHT22;2042;47.956;9.222;2024-03-07T05:56:35;2.50;64.20
4054;DHT22;2042;47.956;9.222;2024-03-07T05:59:05;2.50;64.10
4054;DHT22;2042;47.956;9.222;2024-03-07T06:01:33;2.50;64.00
4054;DHT22;2042;47.956;9.222;2024-03-07T06:04:04;2.50;64.10
4054;DHT22;2042;47.956;9.222;2024-03-07T06:06:33;2.50;63.90
4054;DHT22;2042;47.956;9.222;2024-03-07T06:09:04;2.50;63.90
4054;DHT22;2042;47.956;9.222;2024-03-07T06:11:36;2.50;64.30
4054;DHT22;2042;47.956;9.222;2024-03-07T06:14:03;2.50;64.10
4054;DHT22;2042;47.956;9.222;2024-03-07T06:16:33;2.50;64.10
4054;DHT22;2042;47.956;9.222;2024-03-07T06:19:09;2.50;64.20
4054;DHT22;2042;47.956;9.222;2024-03-07T06:21:36;2.50;64.10
4054;DHT22;2042;47.956;9.222;2024-03-07T06:24:03;2.50;64.00
4054;DHT22;2042;47.956;9.222;2024-03-07T06:26:33;2.50;63.80
4054;DHT22;2042;47.956;9.222;2024-03-07T06:29:18;2.50;64.50
4054;DHT22;2042;47.956;9.222;2024-03-07T06:31:44;2.50;64.10
4054;DHT22;2042;47.956;9.222;2024-03-07T06:34:13;2.50;64.10
4054;DHT22;2042;47.956;9.222;2024-03-07T06:36:39;2.50;63.70
4054;DHT22;2042;47.956;9.222;2024-03-07T06:39:06;2.50;63.10
4054;DHT22;2042;47.956;9.222;2024-03-07T06:41:35;2.40;62.60
4054;DHT22;2042;47.956;9.222;2024-03-07T06:44:01;2.40;62.50
4054;DHT22;2042;47.956;9.222;2024-03-07T06:46:27;2.40;62.60
4054;DHT22;2042;47.956;9.222;2024-03-07T06:48:54;2.40;62.60
4054;DHT22;2042;47.956;9.222;2024-03-07T06:51:22;2.40;62.90
4054;DHT22;2042;47.956;9.222;2024-03-07T06:53:48;2.50;63.50
4054;DHT22;2042;47.956;9.222;2024-03-07T06:56:15;2.50;63.20
4054;DHT22;2042;47.956;9.222;2024-03-07T06:58:42;2.50;63.10
4054;DHT22;2042;47.956;9.222;2024-03-07T07:01:09;2.50;63.30
4054;DHT22;2042;47.956;9.222;2024-03-07T07:03:39;2.50;62.80
4054;DHT22;2042;47.956;9.222;2024-03-07T07:06:04;2.50;62.60
4054;DHT22;2042;47.956;9.222;2024-03-07T07:08:33;2.50;62.00
4054;DHT22;2042;47.956;9.222;2024-03-07T07:10:59;2.50;61.90
4054;DHT22;2042;47.956;9.222;2024-03-07T07:13:25;2.50;62.00
4054;DHT22;2042;47.956;9.222;2024-03-07T07:15:51;2.50;62.00
4054;DHT22;2042;47.956;9.222;2024-03-07T07:18:17;2.50;61.60
4054;DHT22;2042;47.956;9.222;2024-03-07T07:20:43;2.50;61.30
4054;DHT22;2042;47.956;9.222;2024-03-07T07:23:08;2.50;61.40
4054;DHT22;2042;47.956;9.222;2024-03-07T07:25:34;2.50;61.20
4054;DHT22;2042;47.956;9.222;2024-03-07T07:28:00;2.50;60.90
4054;DHT22;2042;47.956;9.222;2024-03-07T07:30:26;2.50;60.50
4054;DHT22;2042;47.956;9.222;2024-03-07T07:32:54;2.60;60.60
4054;DHT22;2042;47.956;9.222;2024-03-07T07:35:20;2.50;60.40
4054;DHT22;2042;47.956;9.222;2024-03-07T07:37:49;2.60;60.60
4054;DHT22;2042;47.956;9.222;2024-03-07T07:40:18;2.60;60.70
4054;DHT22;2042;47.956;9.222;2024-03-07T07:42:48;2.70;60.80
4054;DHT22;2042;47.956;9.222;2024-03-07T07:45:15;2.80;61.10
4054;DHT22;2042;47.956;9.222;2024-03-07T07:47:45;2.80;60.60
4054;DHT22;2042;47.956;9.222;2024-03-07T07:50:15;2.80;60.40
4054;DHT22;2042;47.956;9.222;2024-03-07T07:52:54;2.90;60.40
4054;DHT22;2042;47.956;9.222;2024-03-07T07:55:20;3.00;60.40
4054;DHT22;2042;47.956;9.222;2024-03-07T07:57:49;3.00;59.30
4054;DHT22;2042;47.956;9.222;2024-03-07T08:00:40;3.00;59.10
4054;DHT22;2042;47.956;9.222;2024-03-07T08:03:09;3.10;59.20
4054;DHT22;2042;47.956;9.222;2024-03-07T08:05:37;3.10;59.40
4054;DHT22;2042;47.956;9.222;2024-03-07T08:08:05;3.20;58.90
4054;DHT22;2042;47.956;9.222;2024-03-07T08:10:36;3.30;57.90
4054;DHT22;2042;47.956;9.222;2024-03-07T08:13:03;3.30;56.70
4054;DHT22;2042;47.956;9.222;2024-03-07T08:15:31;3.30;55.80
4054;DHT22;2042;47.956;9.222;2024-03-07T08:17:57;3.30;54.70
4054;DHT22;2042;47.956;9.222;2024-03-07T08:20:24;3.40;54.00
4054;DHT22;2042;47.956;9.222;2024-03-07T08:22:53;3.30;53.20
4054;DHT22;2042;47.956;9.222;2024-03-07T08:25:22;3.50;52.80
4054;DHT22;2042;47.956;9.222;2024-03-07T08:27:49;3.50;53.00
4054;DHT22;2042;47.956;9.222;2024-03-07T08:30:15;3.60;52.90
4054;DHT22;2042;47.956;9.222;2024-03-07T08:32:43;3.70;52.90
4054;DHT22;2042;47.956;9.222;2024-03-07T08:35:09;3.80;52.60
4054;DHT22;2042;47.956;9.222;2024-03-07T08:37:43;3.90;50.80
4054;DHT22;2042;47.956;9.222;2024-03-07T08:40:16;3.90;49.10
4054;DHT22;2042;47.956;9.222;2024-03-07T08:42:48;3.80;48.10
4054;DHT22;2042;47.956;9.222;2024-03-07T08:45:18;3.80;46.40
4054;DHT22;2042;47.956;9.222;2024-03-07T08:47:48;3.90;45.90
4054;DHT22;2042;47.956;9.222;2024-03-07T08:50:15;3.80;46.30
4054;DHT22;2042;47.956;9.222;2024-03-07T08:52:44;4.00;45.10
4054;DHT22;2042;47.956;9.222;2024-03-07T08:55:11;3.90;43.70
4054;DHT22;2042;47.956;9.222;2024-03-07T08:57:38;3.90;41.50
4054;DHT22;2042;47.956;9.222;2024-03-07T09:00:05;3.80;40.80
4054;DHT22;2042;47.956;9.222;2024-03-07T09:02:35;3.80;41.00
4054;DHT22;2042;47.956;9.222;2024-03-07T09:05:02;3.80;40.20
4054;DHT22;2042;47.956;9.222;2024-03-07T09:07:28;3.90;39.00
4054;DHT22;2042;47.956;9.222;2024-03-07T09:09:55;3.80;36.10
4054;DHT22;2042;47.956;9.222;2024-03-07T09:12:20;3.80;35.60
4054;DHT22;2042;47.956;9.222;2024-03-07T09:14:46;3.80;36.20
4054;DHT22;2042;47.956;9.222;2024-03-07T09:17:12;3.80;35.90
4054;DHT22;2042;47.956;9.222;2024-03-07T09:19:38;3.90;36.10
4054;DHT22;2042;47.956;9.222;2024-03-07T09:22:04;4.00;36.90
4054;DHT22;2042;47.956;9.222;2024-03-07T09:24:30;4.10;36.20
4054;DHT22;2042;47.956;9.222;2024-03-07T09:26:56;4.00;34.10
4054;DHT22;2042;47.956;9.222;2024-03-07T09:29:22;4.00;32.10
4054;DHT22;2042;47.956;9.222;2024-03-07T09:31:51;3.90;31.60
4054;DHT22;2042;47.956;9.222;2024-03-07T09:34:21;3.90;31.00
4054;DHT22;2042;47.956;9.222;2024-03-07T09:36:50;3.90;32.00
4054;DHT22;2042;47.956;9.222;2024-03-07T09:39:16;3.90;31.00
4054;DHT22;2042;47.956;9.222;2024-03-07T09:41:42;3.90;32.10
4054;DHT22;2042;47.956;9.222;2024-03-07T09:44:14;4.00;31.80
4054;DHT22;2042;47.956;9.222;2024-03-07T09:46:50;4.10;31.20
4054;DHT22;2042;47.956;9.222;2024-03-07T09:49:16;4.20;31.30
4054;DHT22;2042;47.956;9.222;2024-03-07T09:51:44;4.20;31.70
4054;DHT22;2042;47.956;9.222;2024-03-07T09:54:10;4.30;31.40
4054;DHT22;2042;47.956;9.222;2024-03-07T09:56:36;4.30;28.30
4054;DHT22;2042;47.956;9.222;2024-03-07T09:59:04;4.30;27.20
4054;DHT22;2042;47.956;9.222;2024-03-07T10:01:36;4.20;27.80
4054;DHT22;2042;47.956;9.222;2024-03-07T10:04:05;4.30;27.00
4054;DHT22;2042;47.956;9.222;2024-03-07T10:06:43;4.40;27.60
4054;DHT22;2042;47.956;9.222;2024-03-07T10:09:13;4.40;28.00
4054;DHT22;2042;47.956;9.222;2024-03-07T10:11:40;4.60;26.90
4054;DHT22;2042;47.956;9.222;2024-03-07T10:14:09;4.60;25.30
4054;DHT22;2042;47.956;9.222;2024-03-07T10:16:35;4.50;22.50
4054;DHT22;2042;47.956;9.222;2024-03-07T10:19:05;4.50;22.70
4054;DHT22;2042;47.956;9.222;2024-03-07T10:21:31;4.50;22.60
4054;DHT22;2042;47.956;9.222;2024-03-07T10:24:08;4.60;21.50
4054;DHT22;2042;47.956;9.222;2024-03-07T10:26:37;4.50;21.00
4054;DHT22;2042;47.956;9.222;2024-03-07T10:29:04;4.50;20.10
4054;DHT22;2042;47.956;9.222;2024-03-07T10:31:33;4.70;21.50
4054;DHT22;2042;47.956;9.222;2024-03-07T10:34:00;4.90;24.10
4054;DHT22;2042;47.956;9.222;2024-03-07T10:36:28;5.30;23.80
4054;DHT22;2042;47.956;9.222;2024-03-07T10:38:59;5.40;18.20
4054;DHT22;2042;47.956;9.222;2024-03-07T10:41:35;5.40;15.50
4054;DHT22;2042;47.956;9.222;2024-03-07T10:44:03;5.40;14.60
4054;DHT22;2042;47.956;9.222;2024-03-07T10:46:30;5.50;13.50
4054;DHT22;2042;47.956;9.222;2024-03-07T10:48:58;5.60;12.70
4054;DHT22;2042;47.956;9.222;2024-03-07T10:51:26;5.60;12.30
4054;DHT22;2042;47.956;9.222;2024-03-07T10:54:36;5.70;7.70
4054;DHT22;2042;47.956;9.222;2024-03-07T10:59:48;5.50;5.20
4054;DHT22;2042;47.956;9.222;2024-03-07T11:04:53;5.80;8.20
4054;DHT22;2042;47.956;9.222;2024-03-07T11:07:22;6.10;7.30
4054;DHT22;2042;47.956;9.222;2024-03-07T11:09:52;6.30;4.20
4054;DHT22;2042;47.956;9.222;2024-03-07T11:12:23;6.20;1.00
4054;DHT22;2042;47.956;9.222;2024-03-07T11:14:50;6.00;1.00
4054;DHT22;2042;47.956;9.222;2024-03-07T11:17:18;5.90;1.00
4054;DHT22;2042;47.956;9.222;2024-03-07T11:19:45;5.70;1.00
4054;DHT22;2042;47.956;9.222;2024-03-07T11:22:11;5.70;1.00
4054;DHT22;2042;47.956;9.222;2024-03-07T11:24:43;5.70;1.00
4054;DHT22;2042;47.956;9.222;2024-03-07T11:27:10;5.60;1.00
4054;DHT22;2042;47.956;9.222;2024-03-07T11:29:39;5.60;1.00
4054;DHT22;2042;47.956;9.222;2024-03-07T11:32:18;5.40;1.00
4054;DHT22;2042;47.956;9.222;2024-03-07T11:34:47;5.30;1.00
4054;DHT22;2042;47.956;9.222;2024-03-07T11:37:44;5.40;1.00
4054;DHT22;2042;47.956;9.222;2024-03-07T11:40:12;5.60;1.00
4054;DHT22;2042;47.956;9.222;2024-03-07T11:42:48;5.40;1.00
4054;DHT22;2042;47.956;9.222;2024-03-07T11:45:16;5.40;1.00
4054;DHT22;2042;47.956;9.222;2024-03-07T11:47:52;5.50;1.00
4054;DHT22;2042;47.956;9.222;2024-03-07T11:50:47;5.80;1.00
4054;DHT22;2042;47.956;9.222;2024-03-07T11:53:12;6.20;1.00
4054;DHT22;2042;47.956;9.222;2024-03-07T11:55:39;6.50;1.00
4054;DHT22;2042;47.956;9.222;2024-03-07T12:00:43;6.70;1.00
4054;DHT22;2042;47.956;9.222;2024-03-07T12:03:13;6.50;1.00
4054;DHT22;2042;47.956;9.222;2024-03-07T12:05:41;6.30;1.00
4054;DHT22;2042;47.956;9.222;2024-03-07T12:08:07;6.20;1.00
4054;DHT22;2042;47.956;9.222;2024-03-07T12:10:35;6.30;1.00
4054;DHT22;2042;47.956;9.222;2024-03-07T12:13:02;6.30;1.00
4054;DHT22;2042;47.956;9.222;2024-03-07T12:15:30;6.30;1.00
4054;DHT22;2042;47.956;9.222;2024-03-07T12:17:57;6.40;1.00
4054;DHT22;2042;47.956;9.222;2024-03-07T12:20:23;6.50;1.00
4054;DHT22;2042;47.956;9.222;2024-03-07T12:23:00;6.60;1.00
4054;DHT22;2042;47.956;9.222;2024-03-07T12:25:29;6.70;1.00
4054;DHT22;2042;47.956;9.222;2024-03-07T12:28:05;6.70;1.00
4054;DHT22;2042;47.956;9.222;2024-03-07T12:30:35;6.60;1.00
4054;DHT22;2042;47.956;9.222;2024-03-07T12:33:03;6.50;1.00
4054;DHT22;2042;47.956;9.222;2024-03-07T12:35:30;6.30;1.00
4054;DHT22;2042;47.956;9.222;2024-03-07T12:37:57;6.30;1.00
4054;DHT22;2042;47.956;9.222;2024-03-07T12:40:23;6.30;1.00
4054;DHT22;2042;47.956;9.222;2024-03-07T12:42:52;6.20;1.00
4054;DHT22;2042;47.956;9.222;2024-03-07T12:45:21;6.10;1.00
4054;DHT22;2042;47.956;9.222;2024-03-07T12:47:47;6.00;1.00
4054;DHT22;2042;47.956;9.222;2024-03-07T12:50:18;6.00;1.00
4054;DHT22;2042;47.956;9.222;2024-03-07T12:52:49;6.00;1.00
4054;DHT22;2042;47.956;9.222;2024-03-07T12:55:16;6.00;1.00
4054;DHT22;2042;47.956;9.222;2024-03-07T12:57:47;6.00;1.00
4054;DHT22;2042;47.956;9.222;2024-03-07T13:00:13;6.10;1.00
4054;DHT22;2042;47.956;9.222;2024-03-07T13:02:49;6.00;1.00
4054;DHT22;2042;47.956;9.222;2024-03-07T13:05:14;6.00;1.00
4054;DHT22;2042;47.956;9.222;2024-03-07T13:08:01;6.00;1.00
4054;DHT22;2042;47.956;9.222;2024-03-07T13:10:26;6.10;1.00
4054;DHT22;2042;47.956;9.222;2024-03-07T13:12:52;6.10;1.00
4054;DHT22;2042;47.956;9.222;2024-03-07T13:15:18;6.20;1.00
4054;DHT22;2042;47.956;9.222;2024-03-07T13:17:48;6.30;1.00
4054;DHT22;2042;47.956;9.222;2024-03-07T13:20:17;6.50;1.00
4054;DHT22;2042;47.956;9.222;2024-03-07T13:22:47;6.60;1.00
4054;DHT22;2042;47.956;9.222;2024-03-07T13:25:16;6.60;1.00
4054;DHT22;2042;47.956;9.222;2024-03-07T13:27:55;6.60;1.00
4054;DHT22;2042;47.956;9.222;2024-03-07T13:30:25;6.70;1.00
4054;DHT22;2042;47.956;9.222;2024-03-07T13:32:58;6.80;1.00
4054;DHT22;2042;47.956;9.222;2024-03-07T13:35:25;6.70;1.00
4054;DHT22;2042;47.956;9.222;2024-03-07T13:37:52;6.60;1.00
4054;DHT22;2042;47.956;9.222;2024-03-07T13:40:23;6.60;1.00
4054;DHT22;2042;47.956;9.222;2024-03-07T13:42:50;6.60;1.00
4054;DHT22;2042;47.956;9.222;2024-03-07T13:45:35;6.50;1.00
4054;DHT22;2042;47.956;9.222;2024-03-07T13:48:05;6.60;1.00
4054;DHT22;2042;47.956;9.222;2024-03-07T13:50:33;6.50;1.00
4054;DHT22;2042;47.956;9.222;2024-03-07T13:52:59;6.40;1.00
4054;DHT22;2042;47.956;9.222;2024-03-07T14:06:48;5.70;1.00
4054;DHT22;2042;47.956;9.222;2024-03-07T14:23:45;5.50;1.00
4054;DHT22;2042;47.956;9.222;2024-03-07T14:29:31;5.40;1.00
4054;DHT22;2042;47.956;9.222;2024-03-07T14:32:01;5.30;1.00
4054;DHT22;2042;47.956;9.222;2024-03-07T14:37:01;5.20;1.00
4054;DHT22;2042;47.956;9.222;2024-03-07T14:39:29;5.20;1.00
4054;DHT22;2042;47.956;9.222;2024-03-07T14:41:58;5.30;1.00
4054;DHT22;2042;47.956;9.222;2024-03-07T14:44:25;5.30;1.00
4054;DHT22;2042;47.956;9.222;2024-03-07T14:46:58;5.30;1.00
4054;DHT22;2042;47.956;9.222;2024-03-07T14:49:26;5.20;1.00
4054;DHT22;2042;47.956;9.222;2024-03-07T14:51:53;5.30;1.00
4054;DHT22;2042;47.956;9.222;2024-03-07T14:54:22;5.30;1.00
4054;DHT22;2042;47.956;9.222;2024-03-07T14:56:48;5.30;1.00
4054;DHT22;2042;47.956;9.222;2024-03-07T14:59:14;5.30;1.00
4054;DHT22;2042;47.956;9.222;2024-03-07T15:01:41;5.20;1.00
4054;DHT22;2042;47.956;9.222;2024-03-07T15:04:08;5.20;1.00
4054;DHT22;2042;47.956;9.222;2024-03-07T15:06:38;5.30;1.00
4054;DHT22;2042;47.956;9.222;2024-03-07T15:09:04;5.20;1.00
4054;DHT22;2042;47.956;9.222;2024-03-07T15:11:36;5.10;1.00
4054;DHT22;2042;47.956;9.222;2024-03-07T15:14:03;5.20;1.00
4054;DHT22;2042;47.956;9.222;2024-03-07T15:16:35;5.10;1.00
4054;DHT22;2042;47.956;9.222;2024-03-07T15:19:06;5.00;1.00
4054;DHT22;2042;47.956;9.222;2024-03-07T15:21:33;4.80;1.00
4054;DHT22;2042;47.956;9.222;2024-03-07T15:23:59;4.90;1.00
4054;DHT22;2042;47.956;9.222;2024-03-07T15:26:26;4.80;1.00
4054;DHT22;2042;47.956;9.222;2024-03-07T15:28:53;4.70;1.00
4054;DHT22;2042;47.956;9.222;2024-03-07T15:31:22;4.60;1.00
4054;DHT22;2042;47.956;9.222;2024-03-07T15:33:49;4.50;1.00
4054;DHT22;2042;47.956;9.222;2024-03-07T15:36:19;4.50;1.00
4054;DHT22;2042;47.956;9.222;2024-03-07T15:38:47;4.60;1.00
4054;DHT22;2042;47.956;9.222;2024-03-07T15:41:12;4.60;1.00
4054;DHT22;2042;47.956;9.222;2024-03-07T15:43:39;4.60;1.40
4054;DHT22;2042;47.956;9.222;2024-03-07T15:46:08;4.60;1.60
4054;DHT22;2042;47.956;9.222;2024-03-07T15:48:36;4.60;1.50
4054;DHT22;2042;47.956;9.222;2024-03-07T15:51:02;4.70;2.30
4054;DHT22;2042;47.956;9.222;2024-03-07T15:53:29;4.70;2.30
4054;DHT22;2042;47.956;9.222;2024-03-07T15:55:55;4.70;2.30
4054;DHT22;2042;47.956;9.222;2024-03-07T15:58:21;4.70;2.70
4054;DHT22;2042;47.956;9.222;2024-03-07T16:00:48;4.80;3.40
4054;DHT22;2042;47.956;9.222;2024-03-07T16:03:14;4.80;3.40
4054;DHT22;2042;47.956;9.222;2024-03-07T16:05:43;4.80;3.30
4054;DHT22;2042;47.956;9.222;2024-03-07T16:08:11;4.80;3.40
4054;DHT22;2042;47.956;9.222;2024-03-07T16:10:38;4.90;3.50
4054;DHT22;2042;47.956;9.222;2024-03-07T16:13:08;5.00;3.40
4054;DHT22;2042;47.956;9.222;2024-03-07T16:15:35;5.00;3.00
4054;DHT22;2042;47.956;9.222;2024-03-07T16:18:01;4.90;2.40
4054;DHT22;2042;47.956;9.222;2024-03-07T16:20:28;4.90;2.50
4054;DHT22;2042;47.956;9.222;2024-03-07T16:22:54;4.80;2.80
4054;DHT22;2042;47.956;9.222;2024-03-07T16:25:21;4.90;2.70
4054;DHT22;2042;47.956;9.222;2024-03-07T16:27:47;4.80;2.50
4054;DHT22;2042;47.956;9.222;2024-03-07T16:30:14;4.70;2.60
4054;DHT22;2042;47.956;9.222;2024-03-07T16:32:41;4.70;2.20
4054;DHT22;2042;47.956;9.222;2024-03-07T16:35:08;4.70;2.50
4054;DHT22;2042;47.956;9.222;2024-03-07T16:37:37;4.60;2.80
4054;DHT22;2042;47.956;9.222;2024-03-07T16:40:08;4.60;3.00
4054;DHT22;2042;47.956;9.222;2024-03-07T16:42:36;4.60;2.30
4054;DHT22;2042;47.956;9.222;2024-03-07T16:45:06;4.40;1.60
4054;DHT22;2042;47.956;9.222;2024-03-07T16:47:36;4.50;1.30
4054;DHT22;2042;47.956;9.222;2024-03-07T16:50:03;4.40;1.10
4054;DHT22;2042;47.956;9.222;2024-03-07T16:52:30;4.30;1.00
4054;DHT22;2042;47.956;9.222;2024-03-07T16:54:56;4.20;1.00
4054;DHT22;2042;47.956;9.222;2024-03-07T16:57:21;4.20;1.00
4054;DHT22;2042;47.956;9.222;2024-03-07T16:59:50;4.10;1.00
4054;DHT22;2042;47.956;9.222;2024-03-07T17:02:16;4.10;1.00
4054;DHT22;2042;47.956;9.222;2024-03-07T17:04:41;4.10;1.10
4054;DHT22;2042;47.956;9.222;2024-03-07T17:07:07;4.10;1.30
4054;DHT22;2042;47.956;9.222;2024-03-07T17:09:33;4.00;1.30
4054;DHT22;2042;47.956;9.222;2024-03-07T17:11:58;4.00;1.70